Time;durP1;ratioP1;P1;durP2;ratioP2;P2;SDS_P1;SDS_P2;PMS_P1;PMS_P2;Temp;Humidity;BMP_temperature;BMP_pressure;BME280_temperature;BME280_humidity;BME280_pressure;Samples;Min_cycle;Max_cycle;Signal;HPM_P1;HPM_P2
2023/09/27 00:04:15;;;;;;;;;;;;;;;;;;5112127;27;19916;-71
2023/09/27 00:11:33;;;;;;;;;;;;;;;;;;5112501;27;19938;-71
2023/09/27 00:13:59;;;;;;;;;;;;;;;;;;5109956;28;20436;-71
2023/09/27 00:16:25;;;;;;;;;;;;;;;;;;5110383;28;19907;-71
2023/09/27 00:21:48;;;;;;;;;;;;;;;;;;5091970;27;20395;-71
2023/09/27 00:25:18;;;;;;;;;;;;;;;;;;5091601;27;20376;-71
2023/09/27 00:27:44;;;;;;;;;;;;;;;;;;5089709;28;20003;-71
2023/09/27 00:32:33;;;;;;;;;;;;;;;;;;5112311;27;19916;-71
2023/09/27 00:34:59;;;;;;;;;;;;;;;;;;5111359;28;19916;-71
2023/09/27 00:38:26;;;;;;;;;;;;;;;;;;5091418;27;19916;-71
2023/09/27 00:40:52;;;;;;;;;;;;;;;;;;5091086;28;20011;-71
2023/09/27 00:47:52;;;;;;;;;;;;;;;;;;5091513;28;20299;-71
2023/09/27 00:51:39;;;;;;;;;;;;;;;;;;5092087;27;19916;-71
2023/09/27 00:54:05;;;;;;;;;;;;;;;;;;5091711;28;20003;-71
2023/09/27 00:56:31;;;;;;;;;;;;;;;;;;5089603;28;19908;-71
2023/09/27 00:58:57;;;;;;;;;;;;;;;;;;5091351;28;19948;-71
2023/09/27 01:01:23;;;;;;;;;;;;;;;;;;5089510;28;19916;-71
2023/09/27 01:05:35;;;;;;;;;;;;;;;;;;5091446;27;19916;-71
2023/09/27 01:10:33;;;;;;;;;;;;;;;;;;5152763;27;20010;-71
2023/09/27 01:12:59;;;;;;;;;;;;;;;;;;5153049;27;19942;-71
2023/09/27 01:16:59;;;;;;;;;;;;;;;;;;5152674;27;20014;-71
2023/09/27 01:24:37;;;;;;;;;;;;;;;;;;5111854;27;19922;-70
2023/09/27 01:27:03;;;;;;;;;;;;;;;;;;5112031;28;19912;-71
2023/09/27 01:29:29;;;;;;;;;;;;;;;;;;5111273;28;19953;-70
2023/09/27 01:31:56;;;;;;;;;;;;;;;;;;5111740;28;19912;-71
2023/09/27 01:34:22;;;;;;;;;;;;;;;;;;5111503;28;19915;-71
2023/09/27 01:36:48;;;;;;;;;;;;;;;;;;5111144;28;19952;-71
2023/09/27 01:39:14;;;;;;;;;;;;;;;;;;5111756;28;19951;-71
2023/09/27 01:43:30;;;;;;;;;;;;;;;;;;5091405;27;19919;-71
2023/09/27 01:45:56;;;;;;;;;;;;;;;;;;5091308;28;20360;-71
2023/09/27 01:48:22;;;;;;;;;;;;;;;;;;5091602;28;19969;-71
2023/09/27 01:54:11;;;;;;;;;;;;;;;;;;5112469;27;19916;-71
2023/09/27 01:59:51;;;;;;;;;;;;;;;;;;5091797;27;19912;-71
2023/09/27 02:02:17;;;;;;;;;;;;;;;;;;5090088;28;20340;-71
2023/09/27 02:06:14;;;;;;;;;;;;;;;;;;5091217;27;19917;-72
2023/09/27 02:08:40;;;;;;;;;;;;;;;;;;5091314;28;20321;-72
2023/09/27 02:11:06;;;;;;;;;;;;;;;;;;5091198;28;19912;-72
2023/09/27 02:15:54;;;;;;;;;;;;;;;;;;5111864;27;19916;-71
2023/09/27 02:18:19;;;;;;;;;;;;;;;;;;5111753;28;19988;-72
2023/09/27 02:20:45;;;;;;;;;;;;;;;;;;5111261;28;19907;-71
2023/09/27 02:23:46;;;;;;;;;;;;;;;;;;5111836;27;19916;-71
2023/09/27 02:26:54;;;;;;;;;;;;;;;;;;5091329;27;19916;-71
2023/09/27 02:29:20;;;;;;;;;;;;;;;;;;5091367;28;20283;-72
2023/09/27 02:34:26;;;;;;;;;;;;;;;;;;5091108;27;19917;-71
2023/09/27 02:37:27;;;;;;;;;;;;;;;;;;5091860;27;19923;-71
2023/09/27 02:41:35;;;;;;;;;;;;;;;;;;5111486;27;19922;-71
2023/09/27 02:44:01;;;;;;;;;;;;;;;;;;5110472;28;19912;-71
2023/09/27 02:48:40;;;;;;;;;;;;;;;;;;5091134;27;19917;-73
2023/09/27 02:51:06;;;;;;;;;;;;;;;;;;5091400;28;20427;-72
2023/09/27 02:53:32;;;;;;;;;;;;;;;;;;5091275;28;20032;-71
2023/09/27 02:56:36;;;;;;;;;;;;;;;;;;5111889;27;19922;-71
2023/09/27 03:04:40;;;;;;;;;;;;;;;;;;5112219;27;19916;-71
2023/09/27 03:08:24;;;;;;;;;;;;;;;;;;5111489;27;19919;-72
2023/09/27 03:10:50;;;;;;;;;;;;;;;;;;5111712;28;19984;-73
2023/09/27 03:13:16;;;;;;;;;;;;;;;;;;5111636;28;19908;-71
2023/09/27 03:18:03;;;;;;;;;;;;;;;;;;5112417;27;20287;-71
2023/09/27 03:20:31;;;;;;;;;;;;;;;;;;5111769;28;19999;-71
2023/09/27 03:22:57;;;;;;;;;;;;;;;;;;5111602;28;20109;-71
2023/09/27 03:25:24;;;;;;;;;;;;;;;;;;5111585;28;20439;-71
2023/09/27 03:28:53;;;;;;;;;;;;;;;;;;5173912;27;19964;-71
2023/09/27 03:41:13;;;;;;;;;;;;;;;;;;5091664;27;19922;-71
2023/09/27 03:43:39;;;;;;;;;;;;;;;;;;5090996;28;20007;-71
2023/09/27 03:46:05;;;;;;;;;;;;;;;;;;5091205;28;19908;-71
2023/09/27 03:51:04;;;;;;;;;;;;;;;;;;5091278;27;19917;-71
2023/09/27 03:54:30;;;;;;;;;;;;;;;;;;5112327;27;19927;-71
2023/09/27 03:59:07;;;;;;;;;;;;;;;;;;5152556;27;19911;-71
2023/09/27 04:01:33;;;;;;;;;;;;;;;;;;5152861;27;19969;-71
2023/09/27 04:04:00;;;;;;;;;;;;;;;;;;5152991;27;19908;-71
2023/09/27 04:08:49;;;;;;;;;;;;;;;;;;5111864;27;19916;-71
2023/09/27 04:11:15;;;;;;;;;;;;;;;;;;5111521;28;20447;-71
2023/09/27 04:13:41;;;;;;;;;;;;;;;;;;5110341;28;19908;-71
2023/09/27 04:17:01;;;;;;;;;;;;;;;;;;5091834;27;19912;-73
2023/09/27 04:22:42;;;;;;;;;;;;;;;;;;5131503;27;19920;-70
2023/09/27 04:25:08;;;;;;;;;;;;;;;;;;5110815;28;19912;-71
2023/09/27 04:27:34;;;;;;;;;;;;;;;;;;5110210;28;19915;-71
2023/09/27 04:30:00;;;;;;;;;;;;;;;;;;5111661;28;19919;-71
2023/09/27 04:34:04;;;;;;;;;;;;;;;;;;5090219;28;19913;-71
2023/09/27 04:36:56;;;;;;;;;;;;;;;;;;5090585;27;19916;-71
2023/09/27 04:43:36;;;;;;;;;;;;;;;;;;5091761;28;19975;-71
2023/09/27 04:46:28;;;;;;;;;;;;;;;;;;5089934;27;19913;-73
2023/09/27 04:50:44;;;;;;;;;;;;;;;;;;5110007;27;19916;-71
2023/09/27 04:53:10;;;;;;;;;;;;;;;;;;5109948;28;19957;-71
2023/09/27 04:56:31;;;;;;;;;;;;;;;;;;5110060;27;19912;-71
2023/09/27 04:58:58;;;;;;;;;;;;;;;;;;5110296;28;19918;-71
2023/09/27 05:04:35;;;;;;;;;;;;;;;;;;5112344;27;19923;-71
2023/09/27 05:07:03;;;;;;;;;;;;;;;;;;5111743;28;19962;-71
2023/09/27 05:09:59;;;;;;;;;;;;;;;;;;5112231;27;20406;-71
2023/09/27 05:12:25;;;;;;;;;;;;;;;;;;5111230;28;19911;-69
2023/09/27 05:18:59;;;;;;;;;;;;;;;;;;5091085;27;19923;-71
2023/09/27 05:21:25;;;;;;;;;;;;;;;;;;5080505;28;20015;-72
2023/09/27 05:23:51;;;;;;;;;;;;;;;;;;5088992;28;19954;-72
2023/09/27 05:26:17;;;;;;;;;;;;;;;;;;5088103;28;19916;-73
2023/09/27 05:28:43;;;;;;;;;;;;;;;;;;5072307;28;20349;-72
2023/09/27 05:31:09;;;;;;;;;;;;;;;;;;5070342;28;19912;-73
2023/09/27 05:33:35;;;;;;;;;;;;;;;;;;5068998;28;19958;-71
2023/09/27 05:36:01;;;;;;;;;;;;;;;;;;5077652;28;19912;-70
2023/09/27 05:40:53;;;;;;;;;;;;;;;;;;5139044;27;20006;-70
2023/09/27 05:43:19;;;;;;;;;;;;;;;;;;5151858;27;19954;-71
2023/09/27 05:47:47;;;;;;;;;;;;;;;;;;5068930;28;19927;-71
2023/09/27 05:50:13;;;;;;;;;;;;;;;;;;5068656;28;19917;-71
2023/09/27 05:52:43;;;;;;;;;;;;;;;;;;5050693;28;19913;-70
2023/09/27 05:55:15;;;;;;;;;;;;;;;;;;5059313;28;19970;-69
2023/09/27 05:57:41;;;;;;;;;;;;;;;;;;5049729;28;20727;-68
2023/09/27 06:00:14;;;;;;;;;;;;;;;;;;5058643;28;19912;-70
2023/09/27 06:04:00;;;;;;;;;;;;;;;;;;5165163;27;20010;-71
2023/09/27 06:06:26;;;;;;;;;;;;;;;;;;5145846;27;19935;-72
2023/09/27 06:14:57;;;;;;;;;;;;;;;;;;5103267;27;19927;-71
2023/09/27 06:21:18;;;;;;;;;;;;;;;;;;5105493;27;19920;-71
2023/09/27 06:23:44;;;;;;;;;;;;;;;;;;5099892;28;19927;-70
2023/09/27 06:26:38;;;;;;;;;;;;;;;;;;5108062;27;19924;-71
2023/09/27 06:29:04;;;;;;;;;;;;;;;;;;5090471;28;19912;-70
2023/09/27 06:31:30;;;;;;;;;;;;;;;;;;5097930;28;19961;-69
2023/09/27 06:36:29;;;;;;;;;;;;;;;;;;5089377;28;19924;-72
2023/09/27 06:38:55;;;;;;;;;;;;;;;;;;5087524;28;19939;-73
2023/09/27 06:41:21;;;;;;;;;;;;;;;;;;5086248;28;19909;-72
2023/09/27 06:43:47;;;;;;;;;;;;;;;;;;5077781;28;20334;-71
2023/09/27 06:46:16;;;;;;;;;;;;;;;;;;5085738;28;20562;-71
2023/09/27 06:48:43;;;;;;;;;;;;;;;;;;5086012;28;20015;-71
2023/09/27 06:51:11;;;;;;;;;;;;;;;;;;5086141;28;20470;-71
2023/09/27 06:53:38;;;;;;;;;;;;;;;;;;5086058;28;19948;-71
2023/09/27 06:56:05;;;;;;;;;;;;;;;;;;5089420;28;20390;-73
2023/09/27 06:58:31;;;;;;;;;;;;;;;;;;5085960;28;19925;-73
2023/09/27 07:00:57;;;;;;;;;;;;;;;;;;5087124;28;20019;-73
2023/09/27 07:06:40;;;;;;;;;;;;;;;;;;5109373;27;19930;-73
2023/09/27 07:11:03;;;;;;;;;;;;;;;;;;5088207;27;19912;-73
2023/09/27 07:15:35;;;;;;;;;;;;;;;;;;5079449;27;20296;-73
2023/09/27 07:19:26;;;;;;;;;;;;;;;;;;5106304;27;19936;-72
2023/09/27 07:24:42;;;;;;;;;;;;;;;;;;5144274;27;19916;-72
2023/09/27 07:27:08;;;;;;;;;;;;;;;;;;5110904;28;19916;-71
2023/09/27 07:31:57;;;;;;;;;;;;;;;;;;5108670;27;19920;-73
2023/09/27 07:34:23;;;;;;;;;;;;;;;;;;5092455;28;19965;-74
2023/09/27 07:36:49;;;;;;;;;;;;;;;;;;5093752;28;19971;-74
2023/09/27 07:39:16;;;;;;;;;;;;;;;;;;5084558;28;19913;-72
2023/09/27 07:41:42;;;;;;;;;;;;;;;;;;5094529;28;19912;-73
2023/09/27 07:44:09;;;;;;;;;;;;;;;;;;5107457;28;19908;-72
2023/09/27 07:46:36;;;;;;;;;;;;;;;;;;5089918;28;19926;-71
2023/09/27 07:49:01;;;;;;;;;;;;;;;;;;5109354;28;19914;-72
2023/09/27 07:51:28;;;;;;;;;;;;;;;;;;5106013;28;19928;-73
2023/09/27 07:55:04;;;;;;;;;;;;;;;;;;5090240;28;19924;-71
2023/09/27 07:57:30;;;;;;;;;;;;;;;;;;5086192;28;19920;-73
2023/09/27 08:01:22;;;;;;;;;;;;;;;;;;5091176;27;19916;-70
2023/09/27 08:07:03;;;;;;;;;;;;;;;;;;5090928;27;19923;-71
2023/09/27 08:13:11;;;;;;;;;;;;;;;;;;5085991;28;19943;-70
2023/09/27 08:15:37;;;;;;;;;;;;;;;;;;5088813;28;19912;-70
2023/09/27 08:18:03;;;;;;;;;;;;;;;;;;5068914;28;19915;-71
2023/09/27 08:22:09;;;;;;;;;;;;;;;;;;5089379;27;19926;-71
2023/09/27 08:24:36;;;;;;;;;;;;;;;;;;5071961;28;19916;-71
2023/09/27 08:27:02;;;;;;;;;;;;;;;;;;5073236;28;19948;-73
2023/09/27 08:29:28;;;;;;;;;;;;;;;;;;5077050;28;19923;-71
2023/09/27 08:31:54;;;;;;;;;;;;;;;;;;5069798;28;19948;-71
2023/09/27 08:34:20;;;;;;;;;;;;;;;;;;5082947;28;19923;-71
2023/09/27 08:36:46;;;;;;;;;;;;;;;;;;5081045;28;19955;-71
2023/09/27 08:39:14;;;;;;;;;;;;;;;;;;5066671;28;19940;-72
2023/09/27 08:43:48;;;;;;;;;;;;;;;;;;5071778;27;20384;-71
2023/09/27 08:46:15;;;;;;;;;;;;;;;;;;5071715;28;19916;-70
2023/09/27 08:48:41;;;;;;;;;;;;;;;;;;5067333;28;19955;-69
2023/09/27 08:51:07;;;;;;;;;;;;;;;;;;5070319;28;19917;-70
2023/09/27 08:56:46;;;;;;;;;;;;;;;;;;4955226;27;4342439;-70
2023/09/27 08:59:13;;;;;;;;;;;;;;;;;;5091867;28;19912;-75
2023/09/27 09:01:42;;;;;;;;;;;;;;;;;;5096934;28;19918;-75
2023/09/27 09:05:33;;;;;;;;;;;;;;;;;;5072107;28;19931;-74
2023/09/27 09:08:04;;;;;;;;;;;;;;;;;;5066394;28;20377;-74
2023/09/27 09:10:33;;;;;;;;;;;;;;;;;;5055690;28;20357;-71
2023/09/27 09:13:00;;;;;;;;;;;;;;;;;;5033843;28;19913;-73
2023/09/27 09:15:26;;;;;;;;;;;;;;;;;;5062451;28;19919;-72
2023/09/27 09:17:53;;;;;;;;;;;;;;;;;;5052558;28;20281;-72
2023/09/27 09:20:48;;;;;;;;;;;;;;;;;;5066180;28;19913;-71
2023/09/27 09:24:28;;;;;;;;;;;;;;;;;;5088409;27;20313;-73
2023/09/27 09:27:10;;;;;;;;;;;;;;;;;;5143478;27;19929;-72
2023/09/27 09:29:39;;;;;;;;;;;;;;;;;;5107351;28;19918;-70
2023/09/27 09:32:08;;;;;;;;;;;;;;;;;;5109391;27;19978;-72
2023/09/27 09:34:36;;;;;;;;;;;;;;;;;;5125484;28;19916;-72
2023/09/27 09:37:04;;;;;;;;;;;;;;;;;;5092682;28;20281;-69
2023/09/27 09:39:32;;;;;;;;;;;;;;;;;;5151144;27;19972;-68
2023/09/27 09:42:00;;;;;;;;;;;;;;;;;;5119898;27;19943;-71
2023/09/27 09:44:26;;;;;;;;;;;;;;;;;;5089511;28;19919;-71
2023/09/27 09:46:53;;;;;;;;;;;;;;;;;;5121597;28;19924;-71
2023/09/27 09:49:21;;;;;;;;;;;;;;;;;;5122390;27;19920;-70
2023/09/27 09:51:47;;;;;;;;;;;;;;;;;;5118945;28;19973;-70
2023/09/27 09:54:13;;;;;;;;;;;;;;;;;;5090451;28;20035;-70
2023/09/27 09:56:40;;;;;;;;;;;;;;;;;;5108986;28;19912;-71
2023/09/27 09:59:07;;;;;;;;;;;;;;;;;;5126350;27;19976;-71
2023/09/27 10:01:36;;;;;;;;;;;;;;;;;;5119012;28;19918;-72
2023/09/27 10:04:04;;;;;;;;;;;;;;;;;;5112218;27;19919;-71
2023/09/27 10:06:30;;;;;;;;;;;;;;;;;;5112919;28;20294;-72
2023/09/27 10:09:01;;;;;;;;;;;;;;;;;;5123551;27;20003;-73
2023/09/27 10:11:56;;;;;;;;;;;;;;;;;;5031904;27;2644711;-69
2023/09/27 10:14:22;;;;;;;;;;;;;;;;;;5111335;28;20322;-69
2023/09/27 10:16:50;;;;;;;;;;;;;;;;;;5102724;28;20409;-69
2023/09/27 10:19:16;;;;;;;;;;;;;;;;;;5091163;28;20576;-69
2023/09/27 10:21:43;;;;;;;;;;;;;;;;;;5112407;28;19965;-73
2023/09/27 10:24:10;;;;;;;;;;;;;;;;;;5112529;28;20299;-72
2023/09/27 10:26:36;;;;;;;;;;;;;;;;;;5107765;28;19912;-73
2023/09/27 10:29:21;;;;;;;;;;;;;;;;;;5107977;28;20003;-72
2023/09/27 10:31:47;;;;;;;;;;;;;;;;;;5106637;28;19916;-72
2023/09/27 10:34:14;;;;;;;;;;;;;;;;;;5088207;28;19912;-73
2023/09/27 10:36:40;;;;;;;;;;;;;;;;;;5089820;28;20383;-73
2023/09/27 10:39:07;;;;;;;;;;;;;;;;;;5108250;28;19915;-73
2023/09/27 10:41:43;;;;;;;;;;;;;;;;;;5088320;28;19944;-73
2023/09/27 10:44:09;;;;;;;;;;;;;;;;;;5107972;28;19912;-73
2023/09/27 10:46:36;;;;;;;;;;;;;;;;;;5107756;28;19916;-73
2023/09/27 10:49:02;;;;;;;;;;;;;;;;;;5097742;28;20107;-74
2023/09/27 10:51:28;;;;;;;;;;;;;;;;;;5101158;28;19924;-73
2023/09/27 10:53:57;;;;;;;;;;;;;;;;;;5107229;28;19915;-73
2023/09/27 10:56:23;;;;;;;;;;;;;;;;;;5107903;28;19908;-73
2023/09/27 10:58:49;;;;;;;;;;;;;;;;;;5106568;28;20359;-73
2023/09/27 11:01:15;;;;;;;;;;;;;;;;;;5104978;28;19912;-73
2023/09/27 11:03:41;;;;;;;;;;;;;;;;;;5116425;28;20417;-73
2023/09/27 11:06:08;;;;;;;;;;;;;;;;;;5110100;28;19947;-73
2023/09/27 11:08:34;;;;;;;;;;;;;;;;;;5109453;28;19912;-73
2023/09/27 11:11:11;;;;;;;;;;;;;;;;;;5129221;27;19955;-73
2023/09/27 11:13:37;;;;;;;;;;;;;;;;;;5129350;28;19927;-73
2023/09/27 11:16:03;;;;;;;;;;;;;;;;;;5128814;28;19914;-73
2023/09/27 11:18:29;;;;;;;;;;;;;;;;;;5126888;28;19908;-73
2023/09/27 11:20:54;;;;;;;;;;;;;;;;;;5123120;28;20447;-74
2023/09/27 11:23:23;;;;;;;;;;;;;;;;;;5090397;28;19930;-73
2023/09/27 11:25:50;;;;;;;;;;;;;;;;;;5090439;28;19915;-74
2023/09/27 11:28:17;;;;;;;;;;;;;;;;;;5096670;28;19924;-74
2023/09/27 11:30:43;;;;;;;;;;;;;;;;;;5093218;28;19947;-71
2023/09/27 11:33:16;;;;;;;;;;;;;;;;;;5095278;28;19912;-71
2023/09/27 11:35:42;;;;;;;;;;;;;;;;;;5095805;28;19908;-71
2023/09/27 11:38:09;;;;;;;;;;;;;;;;;;5095793;28;19923;-72
2023/09/27 11:40:35;;;;;;;;;;;;;;;;;;5096251;28;20421;-71
2023/09/27 11:43:01;;;;;;;;;;;;;;;;;;5107962;28;19912;-71
2023/09/27 11:45:27;;;;;;;;;;;;;;;;;;5094411;28;20386;-71
2023/09/27 11:47:53;;;;;;;;;;;;;;;;;;5114095;28;19956;-71
2023/09/27 11:50:19;;;;;;;;;;;;;;;;;;5112135;28;20375;-71
2023/09/27 11:52:48;;;;;;;;;;;;;;;;;;5098655;28;19913;-71
2023/09/27 11:55:14;;;;;;;;;;;;;;;;;;5102094;28;19911;-71
2023/09/27 11:57:40;;;;;;;;;;;;;;;;;;5098566;28;19954;-72
2023/09/27 12:00:06;;;;;;;;;;;;;;;;;;5097796;28;19916;-69
2023/09/27 12:02:35;;;;;;;;;;;;;;;;;;5095980;28;19908;-69
2023/09/27 12:05:01;;;;;;;;;;;;;;;;;;5078211;28;19943;-70
2023/09/27 12:07:27;;;;;;;;;;;;;;;;;;5091555;28;19960;-71
2023/09/27 12:09:53;;;;;;;;;;;;;;;;;;5097785;28;19927;-69
2023/09/27 12:12:19;;;;;;;;;;;;;;;;;;5098345;28;19914;-70
2023/09/27 12:14:45;;;;;;;;;;;;;;;;;;5098526;28;19912;-68
2023/09/27 12:17:11;;;;;;;;;;;;;;;;;;5109660;28;19912;-70
2023/09/27 12:19:37;;;;;;;;;;;;;;;;;;5097355;28;19912;-70
2023/09/27 12:22:03;;;;;;;;;;;;;;;;;;5094958;28;20402;-71
2023/09/27 12:24:30;;;;;;;;;;;;;;;;;;5094139;28;20419;-71
2023/09/27 12:26:56;;;;;;;;;;;;;;;;;;5105284;28;19915;-71
2023/09/27 12:29:22;;;;;;;;;;;;;;;;;;5111845;28;19957;-71
2023/09/27 12:31:48;;;;;;;;;;;;;;;;;;5093962;28;19920;-71
2023/09/27 12:34:14;;;;;;;;;;;;;;;;;;5091713;28;19916;-71
2023/09/27 12:36:40;;;;;;;;;;;;;;;;;;5093090;28;20007;-71
2023/09/27 12:39:05;;;;;;;;;;;;;;;;;;5097399;28;20359;-72
2023/09/27 12:41:31;;;;;;;;;;;;;;;;;;5090863;28;20285;-70
2023/09/27 12:43:57;;;;;;;;;;;;;;;;;;5084513;28;20303;-74
2023/09/27 12:46:23;;;;;;;;;;;;;;;;;;5094137;28;20285;-74
2023/09/27 12:48:49;;;;;;;;;;;;;;;;;;5094788;28;20351;-74
2023/09/27 12:51:15;;;;;;;;;;;;;;;;;;5095017;28;19916;-74
2023/09/27 12:53:41;;;;;;;;;;;;;;;;;;5067631;28;20253;-74
2023/09/27 12:56:07;;;;;;;;;;;;;;;;;;5076467;28;20265;-74
2023/09/27 12:58:34;;;;;;;;;;;;;;;;;;5076542;28;20033;-74
2023/09/27 13:01:00;;;;;;;;;;;;;;;;;;5094115;28;19999;-74
2023/09/27 13:03:26;;;;;;;;;;;;;;;;;;5093883;28;20343;-74
2023/09/27 13:05:52;;;;;;;;;;;;;;;;;;5093699;28;19985;-74
2023/09/27 13:08:18;;;;;;;;;;;;;;;;;;5075711;28;19930;-74
2023/09/27 13:10:44;;;;;;;;;;;;;;;;;;5075451;28;20379;-74
2023/09/27 13:13:10;;;;;;;;;;;;;;;;;;5092931;28;20326;-74
2023/09/27 13:15:36;;;;;;;;;;;;;;;;;;5092985;28;20553;-74
2023/09/27 13:18:02;;;;;;;;;;;;;;;;;;5093209;28;19908;-74
2023/09/27 13:20:28;;;;;;;;;;;;;;;;;;5092553;28;19915;-74
2023/09/27 13:22:54;;;;;;;;;;;;;;;;;;5074919;28;19915;-74
2023/09/27 13:25:20;;;;;;;;;;;;;;;;;;5093873;28;19908;-74
2023/09/27 13:27:46;;;;;;;;;;;;;;;;;;5093997;28;19965;-74
2023/09/27 13:30:13;;;;;;;;;;;;;;;;;;5094308;28;19916;-75
2023/09/27 13:32:39;;;;;;;;;;;;;;;;;;5076097;28;20329;-75
2023/09/27 13:35:06;;;;;;;;;;;;;;;;;;5094065;28;20049;-74
2023/09/27 13:37:31;;;;;;;;;;;;;;;;;;5094219;28;19942;-74
2023/09/27 13:39:59;;;;;;;;;;;;;;;;;;5075598;28;19915;-75
2023/09/27 13:42:25;;;;;;;;;;;;;;;;;;5074879;28;20398;-75
2023/09/27 13:44:51;;;;;;;;;;;;;;;;;;5074331;28;19908;-74
2023/09/27 13:47:17;;;;;;;;;;;;;;;;;;5093879;28;19908;-75
2023/09/27 13:49:43;;;;;;;;;;;;;;;;;;5093214;28;20007;-72
2023/09/27 13:52:09;;;;;;;;;;;;;;;;;;5074795;28;20032;-74
2023/09/27 13:54:35;;;;;;;;;;;;;;;;;;5092591;28;19914;-75
2023/09/27 13:57:01;;;;;;;;;;;;;;;;;;5093500;28;20375;-75
2023/09/27 13:59:27;;;;;;;;;;;;;;;;;;5093968;28;20271;-75
2023/09/27 14:01:53;;;;;;;;;;;;;;;;;;5093583;28;19911;-75
2023/09/27 14:04:19;;;;;;;;;;;;;;;;;;5093464;28;19915;-75
2023/09/27 14:06:45;;;;;;;;;;;;;;;;;;5093305;28;19962;-75
2023/09/27 14:09:11;;;;;;;;;;;;;;;;;;5074223;28;19916;-75
2023/09/27 14:11:37;;;;;;;;;;;;;;;;;;5093426;28;19920;-75
2023/09/27 14:14:03;;;;;;;;;;;;;;;;;;5093715;28;19908;-75
2023/09/27 14:16:29;;;;;;;;;;;;;;;;;;5093312;28;20061;-75
2023/09/27 14:18:55;;;;;;;;;;;;;;;;;;5094099;28;20419;-75
2023/09/27 14:21:21;;;;;;;;;;;;;;;;;;5093827;28;20356;-75
2023/09/27 14:23:48;;;;;;;;;;;;;;;;;;5093651;28;19999;-75
2023/09/27 14:26:14;;;;;;;;;;;;;;;;;;5075628;28;20382;-76
2023/09/27 14:28:40;;;;;;;;;;;;;;;;;;5093714;28;19953;-74
2023/09/27 14:31:06;;;;;;;;;;;;;;;;;;5075054;28;19920;-75
2023/09/27 14:33:32;;;;;;;;;;;;;;;;;;5093749;28;19915;-75
2023/09/27 14:35:59;;;;;;;;;;;;;;;;;;5093585;28;19994;-75
2023/09/27 14:38:28;;;;;;;;;;;;;;;;;;5093078;28;19912;-75
2023/09/27 14:40:53;;;;;;;;;;;;;;;;;;5093550;28;19954;-75
2023/09/27 14:43:19;;;;;;;;;;;;;;;;;;5093561;28;19909;-75
2023/09/27 14:45:45;;;;;;;;;;;;;;;;;;5093327;28;20015;-74
2023/09/27 14:48:11;;;;;;;;;;;;;;;;;;5093856;28;19908;-75
2023/09/27 14:50:37;;;;;;;;;;;;;;;;;;5093483;28;19986;-75
2023/09/27 14:53:03;;;;;;;;;;;;;;;;;;5093195;28;19921;-74
2023/09/27 14:55:30;;;;;;;;;;;;;;;;;;5093744;28;20010;-74
2023/09/27 14:57:55;;;;;;;;;;;;;;;;;;5095952;28;19912;-75
2023/09/27 15:00:25;;;;;;;;;;;;;;;;;;5096912;28;19908;-75
2023/09/27 15:02:51;;;;;;;;;;;;;;;;;;5097397;28;19914;-75
2023/09/27 15:05:17;;;;;;;;;;;;;;;;;;5096758;28;19908;-75
2023/09/27 15:07:43;;;;;;;;;;;;;;;;;;5097100;28;19912;-74
2023/09/27 15:10:09;;;;;;;;;;;;;;;;;;5096716;28;20372;-74
2023/09/27 15:12:35;;;;;;;;;;;;;;;;;;5096726;28;20437;-75
2023/09/27 15:15:01;;;;;;;;;;;;;;;;;;5096934;28;19908;-75
2023/09/27 15:17:27;;;;;;;;;;;;;;;;;;5096960;28;19908;-75
2023/09/27 15:19:53;;;;;;;;;;;;;;;;;;5096346;28;19915;-75
2023/09/27 15:22:18;;;;;;;;;;;;;;;;;;5096800;28;19922;-75
2023/09/27 15:24:44;;;;;;;;;;;;;;;;;;5078399;28;19961;-75
2023/09/27 15:27:10;;;;;;;;;;;;;;;;;;5077953;28;20006;-75
2023/09/27 15:29:36;;;;;;;;;;;;;;;;;;5095446;28;19955;-75
2023/09/27 15:32:02;;;;;;;;;;;;;;;;;;5095077;28;19915;-75
2023/09/27 15:34:28;;;;;;;;;;;;;;;;;;5077945;28;19908;-74
2023/09/27 15:36:54;;;;;;;;;;;;;;;;;;5096427;28;20058;-75
2023/09/27 15:39:22;;;;;;;;;;;;;;;;;;5095753;28;19908;-75
2023/09/27 15:41:48;;;;;;;;;;;;;;;;;;5075850;28;19916;-75
2023/09/27 15:44:14;;;;;;;;;;;;;;;;;;5094334;28;20291;-74
2023/09/27 15:46:40;;;;;;;;;;;;;;;;;;5094217;28;19908;-74
2023/09/27 15:49:06;;;;;;;;;;;;;;;;;;5093693;28;20262;-74
2023/09/27 15:51:32;;;;;;;;;;;;;;;;;;5093898;28;20295;-75
2023/09/27 15:53:58;;;;;;;;;;;;;;;;;;5094111;28;19908;-75
2023/09/27 15:56:24;;;;;;;;;;;;;;;;;;5093880;28;19952;-74
2023/09/27 15:58:50;;;;;;;;;;;;;;;;;;5094285;28;19908;-75
2023/09/27 16:01:16;;;;;;;;;;;;;;;;;;5077918;28;20367;-75
2023/09/27 16:03:42;;;;;;;;;;;;;;;;;;5077443;28;19999;-74
2023/09/27 16:06:09;;;;;;;;;;;;;;;;;;5096091;28;19919;-75
2023/09/27 16:09:17;;;;;;;;;;;;;;;;;;5111692;27;19912;-73
2023/09/27 16:11:42;;;;;;;;;;;;;;;;;;5111888;28;19916;-74
2023/09/27 16:14:08;;;;;;;;;;;;;;;;;;5111619;28;20363;-74
2023/09/27 16:16:34;;;;;;;;;;;;;;;;;;5111121;28;20292;-74
2023/09/27 16:19:01;;;;;;;;;;;;;;;;;;5111735;28;20369;-74
2023/09/27 16:22:56;;;;;;;;;;;;;;;;;;5111876;27;19916;-75
2023/09/27 16:25:23;;;;;;;;;;;;;;;;;;5110380;28;20003;-74
2023/09/27 16:30:52;;;;;;;;;;;;;;;;;;5152376;27;20038;-73
2023/09/27 16:33:18;;;;;;;;;;;;;;;;;;5152903;27;19954;-73
2023/09/27 16:36:32;;;;;;;;;;;;;;;;;;4946545;27;5881018;-73
2023/09/27 16:38:59;;;;;;;;;;;;;;;;;;5173249;27;19957;-73
2023/09/27 16:41:27;;;;;;;;;;;;;;;;;;5173518;27;20389;-73
2023/09/27 16:43:55;;;;;;;;;;;;;;;;;;5173236;27;19907;-73
2023/09/27 16:46:21;;;;;;;;;;;;;;;;;;5154774;27;19998;-73
2023/09/27 16:48:50;;;;;;;;;;;;;;;;;;5173485;27;19946;-74
2023/09/27 16:51:17;;;;;;;;;;;;;;;;;;5172993;27;19903;-75
2023/09/27 16:53:43;;;;;;;;;;;;;;;;;;5173435;27;20318;-75
2023/09/27 16:56:09;;;;;;;;;;;;;;;;;;5173241;27;19915;-74
2023/09/27 16:58:35;;;;;;;;;;;;;;;;;;5172966;27;19907;-75
2023/09/27 17:01:01;;;;;;;;;;;;;;;;;;5173489;27;19907;-74
2023/09/27 17:03:27;;;;;;;;;;;;;;;;;;5173297;27;19914;-75
2023/09/27 17:05:53;;;;;;;;;;;;;;;;;;5172847;27;19911;-74
2023/09/27 17:08:19;;;;;;;;;;;;;;;;;;5173273;27;19907;-74
2023/09/27 17:13:38;;;;;;;;;;;;;;;;;;5152621;27;19998;-73
2023/09/27 17:16:07;;;;;;;;;;;;;;;;;;5152873;27;20041;-73
2023/09/27 17:18:33;;;;;;;;;;;;;;;;;;5152777;27;20378;-73
2023/09/27 17:20:59;;;;;;;;;;;;;;;;;;5152400;27;19994;-74
2023/09/27 17:23:25;;;;;;;;;;;;;;;;;;5134158;27;20006;-73
2023/09/27 17:25:51;;;;;;;;;;;;;;;;;;5152660;27;19912;-74
2023/09/27 17:31:14;;;;;;;;;;;;;;;;;;5091654;27;19912;-73
2023/09/27 17:33:42;;;;;;;;;;;;;;;;;;5090709;28;20011;-73
2023/09/27 17:37:13;;;;;;;;;;;;;;;;;;5112569;27;19922;-73
2023/09/27 17:39:39;;;;;;;;;;;;;;;;;;5111673;28;20010;-73
2023/09/27 17:42:30;;;;;;;;;;;;;;;;;;5112343;27;19919;-75
2023/09/27 17:44:56;;;;;;;;;;;;;;;;;;5111750;28;19995;-75
2023/09/27 17:47:22;;;;;;;;;;;;;;;;;;5111311;28;19959;-74
2023/09/27 17:50:50;;;;;;;;;;;;;;;;;;5112529;27;19912;-74
2023/09/27 17:53:16;;;;;;;;;;;;;;;;;;5111711;28;19919;-74
2023/09/27 17:55:42;;;;;;;;;;;;;;;;;;5111315;28;19908;-75
2023/09/27 17:58:08;;;;;;;;;;;;;;;;;;5111590;28;19919;-74
2023/09/27 18:00:34;;;;;;;;;;;;;;;;;;5111573;28;20313;-73
2023/09/27 18:04:28;;;;;;;;;;;;;;;;;;5111743;27;20322;-74
2023/09/27 18:06:54;;;;;;;;;;;;;;;;;;5111669;28;20314;-75
2023/09/27 18:10:01;;;;;;;;;;;;;;;;;;5090950;27;19923;-74
2023/09/27 18:14:00;;;;;;;;;;;;;;;;;;5091350;27;19919;-72
2023/09/27 18:16:26;;;;;;;;;;;;;;;;;;5090849;28;20014;-72
2023/09/27 18:18:54;;;;;;;;;;;;;;;;;;5091173;28;19916;-74
2023/09/27 18:21:20;;;;;;;;;;;;;;;;;;5091420;28;20327;-73
2023/09/27 18:26:11;;;;;;;;;;;;;;;;;;5111797;27;19918;-73
2023/09/27 18:30:38;;;;;;;;;;;;;;;;;;5070930;28;19917;-73
2023/09/27 18:33:16;;;;;;;;;;;;;;;;;;5153461;27;20003;-73
2023/09/27 18:35:42;;;;;;;;;;;;;;;;;;5134401;27;19955;-73
2023/09/27 18:38:08;;;;;;;;;;;;;;;;;;5133871;27;19914;-75
2023/09/27 18:40:37;;;;;;;;;;;;;;;;;;5152791;27;19916;-75
2023/09/27 18:51:39;;;;;;;;;;;;;;;;;;5111732;27;19916;-73
2023/09/27 18:54:05;;;;;;;;;;;;;;;;;;5110492;28;20427;-75
2023/09/27 18:56:31;;;;;;;;;;;;;;;;;;5111674;28;19915;-73
2023/09/27 18:59:00;;;;;;;;;;;;;;;;;;5110013;28;20022;-73
2023/09/27 19:01:26;;;;;;;;;;;;;;;;;;5111596;28;19947;-73
2023/09/27 19:03:52;;;;;;;;;;;;;;;;;;5111595;28;19908;-75
2023/09/27 19:06:18;;;;;;;;;;;;;;;;;;5111167;28;19912;-74
2023/09/27 19:08:44;;;;;;;;;;;;;;;;;;5111481;28;19995;-74
2023/09/27 19:12:35;;;;;;;;;;;;;;;;;;5091488;27;19912;-74
2023/09/27 19:15:01;;;;;;;;;;;;;;;;;;5091307;28;19999;-74
2023/09/27 19:17:27;;;;;;;;;;;;;;;;;;5091401;28;19935;-74
2023/09/27 19:22:22;;;;;;;;;;;;;;;;;;5099405;27;2115446;-74
2023/09/27 19:24:48;;;;;;;;;;;;;;;;;;5173843;27;19934;-75
2023/09/27 19:27:45;;;;;;;;;;;;;;;;;;5111544;27;19916;-74
2023/09/27 19:30:11;;;;;;;;;;;;;;;;;;5110421;28;20014;-75
2023/09/27 19:32:37;;;;;;;;;;;;;;;;;;5111297;28;19953;-74
2023/09/27 19:35:03;;;;;;;;;;;;;;;;;;5111550;28;19943;-74
2023/09/27 19:37:54;;;;;;;;;;;;;;;;;;5112020;27;19916;-73
2023/09/27 19:40:22;;;;;;;;;;;;;;;;;;5110791;28;20010;-73
2023/09/27 19:42:49;;;;;;;;;;;;;;;;;;5111249;28;19908;-73
2023/09/27 19:45:37;;;;;;;;;;;;;;;;;;5091667;27;19923;-75
2023/09/27 19:50:39;;;;;;;;;;;;;;;;;;5111543;27;19912;-76
2023/09/27 19:53:05;;;;;;;;;;;;;;;;;;5110257;28;20287;-75
2023/09/27 19:55:31;;;;;;;;;;;;;;;;;;5111167;28;19914;-74